createdAt,value
2017-12-01T00:00:22.948Z,88.63
2017-12-01T00:01:49.949Z,89.00
2017-12-01T00:03:21.153Z,88.91
2017-12-01T00:04:44.390Z,88.29
2017-12-01T00:06:11.733Z,88.28
2017-12-01T00:07:39.067Z,88.84
2017-12-01T00:09:06.200Z,88.47
2017-12-01T00:10:33.436Z,88.50
2017-12-01T00:12:00.610Z,88.92
2017-12-01T00:13:27.823Z,88.82
2017-12-01T00:14:59.050Z,88.63
2017-12-01T00:16:22.205Z,88.33
2017-12-01T00:17:53.460Z,88.23
2017-12-01T00:19:16.498Z,88.44
2017-12-01T00:20:43.643Z,88.35
2017-12-01T00:22:10.847Z,88.67
2017-12-01T00:23:37.922Z,88.95
2017-12-01T00:25:09.172Z,89.05
2017-12-01T00:26:32.445Z,88.82
2017-12-01T00:27:59.557Z,88.58
2017-12-01T00:29:30.450Z,88.92
2017-12-01T00:30:53.832Z,88.50
2017-12-01T00:32:20.998Z,88.55
2017-12-01T00:33:52.237Z,88.93
2017-12-01T00:35:19.627Z,89.37
2017-12-01T00:36:46.707Z,88.96
2017-12-01T00:38:10.015Z,89.22
2017-12-01T00:39:41.164Z,88.82
2017-12-01T00:41:08.459Z,88.70
2017-12-01T00:42:31.797Z,88.89
2017-12-01T00:43:58.780Z,89.06
2017-12-01T00:45:25.775Z,89.35
2017-12-01T00:46:52.994Z,89.35
2017-12-01T00:48:20.253Z,89.55
2017-12-01T00:49:47.432Z,89.91
2017-12-01T00:51:14.759Z,89.85
2017-12-01T00:52:41.967Z,89.76
2017-12-01T00:54:09.262Z,89.21
2017-12-01T00:55:36.516Z,89.40
2017-12-01T00:57:07.659Z,89.35
2017-12-01T00:58:34.892Z,89.01
2017-12-01T00:59:58.062Z,88.76
2017-12-01T01:01:29.413Z,88.35
2017-12-01T01:02:52.662Z,88.13
2017-12-01T01:04:19.802Z,87.58
2017-12-01T01:05:51.095Z,87.99
2017-12-01T01:07:14.170Z,87.71
2017-12-01T01:08:41.498Z,87.59
2017-12-01T01:10:08.831Z,87.25
2017-12-01T01:11:39.980Z,86.86
2017-12-01T01:13:07.212Z,86.91
2017-12-01T01:14:34.292Z,87.52
2017-12-01T01:15:57.468Z,87.87
2017-12-01T01:17:28.985Z,87.89
2017-12-01T01:18:52.181Z,87.92
2017-12-01T01:20:23.570Z,87.91
2017-12-01T01:21:46.700Z,87.55
2017-12-01T01:23:17.768Z,87.91
2017-12-01T01:24:44.870Z,87.54
2017-12-01T01:26:12.297Z,87.62
2017-12-01T01:27:35.391Z,87.43
2017-12-01T01:29:02.555Z,87.21
2017-12-01T01:30:33.772Z,86.97
2017-12-01T01:31:56.705Z,86.79
2017-12-01T01:33:23.957Z,86.67
2017-12-01T01:34:55.279Z,86.63
2017-12-01T01:36:22.547Z,86.52
2017-12-01T01:37:45.689Z,86.30
2017-12-01T01:39:12.949Z,85.96
2017-12-01T01:40:40.180Z,86.40
2017-12-01T01:42:07.304Z,86.66
2017-12-01T01:43:34.616Z,86.65
2017-12-01T01:45:05.999Z,86.59
2017-12-01T01:46:33.306Z,86.48
2017-12-01T01:47:56.352Z,86.48
2017-12-01T01:49:27.704Z,86.53
2017-12-01T01:50:51.087Z,86.39
2017-12-01T01:52:18.478Z,86.41
2017-12-01T01:53:45.691Z,86.37
2017-12-01T01:55:16.765Z,86.29
2017-12-01T01:56:39.887Z,86.17
2017-12-01T01:58:07.193Z,86.04
2017-12-01T01:59:34.381Z,85.94
2017-12-01T02:01:01.617Z,85.82
2017-12-01T02:02:28.792Z,85.72
2017-12-01T02:03:59.824Z,86.12
2017-12-01T02:05:27.147Z,86.07
2017-12-01T02:06:50.373Z,85.94
2017-12-01T02:08:17.481Z,85.97
2017-12-01T02:09:48.803Z,85.99
2017-12-01T02:11:11.893Z,86.16
2017-12-01T02:12:39.121Z,85.95
2017-12-01T02:14:06.287Z,85.82
2017-12-01T02:15:33.680Z,85.71
2017-12-01T02:17:00.700Z,85.73
2017-12-01T02:18:31.799Z,85.72
2017-12-01T02:20:02.071Z,85.83
2017-12-01T02:21:26.244Z,85.68
2017-12-01T02:22:49.578Z,85.68
2017-12-01T02:24:20.790Z,85.58
2017-12-01T02:25:44.093Z,85.69
2017-12-01T02:27:11.412Z,85.76
2017-12-01T02:28:38.516Z,85.72
2017-12-01T02:30:09.882Z,85.52
2017-12-01T02:31:33.172Z,85.45
2017-12-01T02:33:04.430Z,85.92
2017-12-01T02:34:27.595Z,85.75
2017-12-01T02:35:54.829Z,85.67
2017-12-01T02:37:26.013Z,85.69
2017-12-01T02:38:53.227Z,85.66
2017-12-01T02:40:20.658Z,86.23
2017-12-01T02:41:43.663Z,86.55
2017-12-01T02:43:14.727Z,86.45
2017-12-01T02:44:37.874Z,86.32
2017-12-01T02:46:09.164Z,86.12
2017-12-01T02:47:36.493Z,86.87
2017-12-01T02:48:59.758Z,86.46
2017-12-01T02:50:30.675Z,86.83
2017-12-01T02:53:21.194Z,86.73
2017-12-01T02:54:52.455Z,86.43
2017-12-01T02:56:15.692Z,86.28
2017-12-01T02:57:42.997Z,86.30
2017-12-01T02:59:10.112Z,86.08
2017-12-01T03:00:41.374Z,86.32
2017-12-01T03:02:04.757Z,86.30
2017-12-01T03:03:31.985Z,87.21
2017-12-01T03:04:59.237Z,88.01
2017-12-01T03:06:30.303Z,88.36
2017-12-01T03:07:57.645Z,88.02
2017-12-01T03:09:24.814Z,88.01
2017-12-01T03:10:48.141Z,88.54
2017-12-01T03:12:19.536Z,88.39
2017-12-01T03:13:42.809Z,88.17
2017-12-01T03:15:14.020Z,88.37
2017-12-01T03:16:40.860Z,88.31
2017-12-01T03:18:03.923Z,87.98
2017-12-01T03:19:31.013Z,87.56
2017-12-01T03:21:02.105Z,87.40
2017-12-01T03:22:25.471Z,87.61
2017-12-01T03:23:52.783Z,87.74
2017-12-01T03:25:20.065Z,87.58
2017-12-01T03:26:51.053Z,87.36
2017-12-01T03:28:18.224Z,87.09
2017-12-01T03:29:41.564Z,86.95
2017-12-01T03:31:08.724Z,87.21
2017-12-01T03:32:39.925Z,87.02
2017-12-01T03:34:07.122Z,86.93
2017-12-01T03:35:30.291Z,87.06
2017-12-01T03:36:57.435Z,86.76
2017-12-01T03:38:24.707Z,87.20
2017-12-01T03:39:52.003Z,87.13
2017-12-01T03:41:18.958Z,86.85
2017-12-01T03:42:46.250Z,86.83
2017-12-01T03:44:13.573Z,86.42
2017-12-01T03:45:40.804Z,86.18
2017-12-01T03:47:12.016Z,85.97
2017-12-01T03:48:35.147Z,85.69
2017-12-01T03:51:33.482Z,86.77
2017-12-01T03:52:56.549Z,86.83
2017-12-01T03:54:27.760Z,87.34
2017-12-01T03:55:51.106Z,87.54
2017-12-01T03:57:18.350Z,87.73
2017-12-01T03:58:45.572Z,88.19
2017-12-01T04:00:16.963Z,88.42
2017-12-01T04:01:40.295Z,88.16
2017-12-01T04:03:07.559Z,88.21
2017-12-01T04:04:34.669Z,87.83
2017-12-01T04:06:01.888Z,87.53
2017-12-01T04:07:29.018Z,87.64
2017-12-01T04:09:00.005Z,87.49
2017-12-01T04:10:27.119Z,87.22
2017-12-01T04:11:50.228Z,87.04
2017-12-01T04:13:21.520Z,87.14
2017-12-01T04:14:48.886Z,87.24
2017-12-01T04:16:12.141Z,87.04
2017-12-01T04:17:39.395Z,86.65
2017-12-01T04:19:06.597Z,87.02
2017-12-01T04:20:33.754Z,87.46
2017-12-01T04:22:04.989Z,87.56
2017-12-01T04:23:28.243Z,87.65
2017-12-01T04:24:55.434Z,87.34
2017-12-01T04:26:22.660Z,87.33
2017-12-01T04:27:53.936Z,87.28
2017-12-01T04:29:21.074Z,86.97
2017-12-01T04:30:48.356Z,86.94
2017-12-01T04:32:15.551Z,86.83
2017-12-01T04:33:42.726Z,86.80
2017-12-01T04:35:09.723Z,86.75
2017-12-01T04:36:36.759Z,86.96
2017-12-01T04:37:59.934Z,87.04
2017-12-01T04:39:31.198Z,86.78
2017-12-01T04:40:54.394Z,87.14
2017-12-01T04:42:21.524Z,86.98
2017-12-01T04:43:48.805Z,87.08
2017-12-01T04:45:20.188Z,87.05
2017-12-01T04:46:47.499Z,86.94
2017-12-01T04:48:14.547Z,86.61
2017-12-01T04:49:41.752Z,86.39
2017-12-01T04:51:08.864Z,86.25
2017-12-01T04:52:32.240Z,86.09
2017-12-01T04:53:59.253Z,86.16
2017-12-01T04:55:26.215Z,86.00
2017-12-01T04:56:53.461Z,85.99
2017-12-01T04:58:24.808Z,85.83
2017-12-01T04:59:47.991Z,85.71
2017-12-01T05:01:15.190Z,85.67
2017-12-01T05:02:46.436Z,85.78
2017-12-01T05:04:09.556Z,85.89
2017-12-01T05:05:36.833Z,85.94
2017-12-01T05:07:08.218Z,86.11
2017-12-01T05:08:35.347Z,86.19
2017-12-01T05:09:58.515Z,86.33
2017-12-01T05:11:25.474Z,86.34
2017-12-01T05:12:52.845Z,86.56
2017-12-01T05:14:23.991Z,86.63
2017-12-01T05:15:51.373Z,86.58
2017-12-01T05:17:14.647Z,86.41
2017-12-01T05:18:42.073Z,86.40
2017-12-01T05:20:09.250Z,86.19
2017-12-01T05:21:40.538Z,85.97
2017-12-01T05:23:03.823Z,86.04
2017-12-01T05:24:30.935Z,85.90
2017-12-01T05:25:58.200Z,85.86
2017-12-01T05:27:29.373Z,85.86
2017-12-01T05:28:56.512Z,85.53
2017-12-01T05:30:19.807Z,86.25
2017-12-01T05:31:50.955Z,86.52
2017-12-01T05:33:14.272Z,86.61
2017-12-01T05:34:45.383Z,86.78
2017-12-01T05:36:12.550Z,86.66
2017-12-01T05:37:39.813Z,86.77
2017-12-01T05:39:07.024Z,86.67
2017-12-01T05:40:34.385Z,86.50
2017-12-01T05:41:57.589Z,87.10
2017-12-01T05:43:24.910Z,87.17
2017-12-01T05:44:52.126Z,86.78
2017-12-01T05:46:19.388Z,87.19
2017-12-01T05:47:46.694Z,87.27
2017-12-01T05:49:17.986Z,87.13
2017-12-01T05:50:45.255Z,87.00
2017-12-01T05:52:08.482Z,86.90
2017-12-01T05:53:35.758Z,86.75
2017-12-01T05:55:02.908Z,86.46
2017-12-01T05:56:34.106Z,86.56
2017-12-01T05:58:00.938Z,86.55
2017-12-01T05:59:24.192Z,86.38
2017-12-01T06:00:55.260Z,86.25
2017-12-01T06:02:22.645Z,86.16
2017-12-01T06:03:45.745Z,86.16
2017-12-01T06:05:12.869Z,86.06
2017-12-01T06:06:40.019Z,86.11
2017-12-01T06:08:11.354Z,86.05
2017-12-01T06:09:38.407Z,85.96
2017-12-01T06:11:05.675Z,85.93
2017-12-01T06:12:32.983Z,85.95
2017-12-01T06:13:59.877Z,85.84
2017-12-01T06:15:23.121Z,85.95
2017-12-01T06:16:50.518Z,85.61
2017-12-01T06:18:21.841Z,86.09
2017-12-01T06:19:49.001Z,86.19
2017-12-01T06:21:12.398Z,86.32
2017-12-01T06:22:39.610Z,86.37
2017-12-01T06:24:10.791Z,86.56
2017-12-01T06:25:38.168Z,86.51
2017-12-01T06:27:01.274Z,86.37
2017-12-01T06:28:28.295Z,86.50
2017-12-01T06:29:55.597Z,86.41
2017-12-01T06:31:22.790Z,86.27
2017-12-01T06:32:50.023Z,86.43
2017-12-01T06:34:17.381Z,86.48
2017-12-01T06:35:44.784Z,86.47
2017-12-01T06:37:11.918Z,86.33
2017-12-01T06:38:43.125Z,86.72
2017-12-01T06:40:10.418Z,86.79
2017-12-01T06:41:33.607Z,86.63
2017-12-01T06:43:00.897Z,86.34
2017-12-01T06:44:27.845Z,86.62
2017-12-01T06:45:55.025Z,86.67
2017-12-01T06:47:22.040Z,86.65
2017-12-01T06:48:49.233Z,86.99
2017-12-01T06:50:16.340Z,86.70
2017-12-01T06:51:43.570Z,86.59
2017-12-01T06:53:10.663Z,86.84
2017-12-01T06:54:41.974Z,87.07
2017-12-01T06:56:05.063Z,86.92
2017-12-01T06:57:32.313Z,86.87
2017-12-01T06:58:59.534Z,86.79
2017-12-01T07:00:26.492Z,86.79
2017-12-01T07:01:57.642Z,86.79
2017-12-01T07:03:20.981Z,86.68
2017-12-01T07:04:48.321Z,86.51
2017-12-01T07:06:15.699Z,86.41
2017-12-01T07:07:42.889Z,86.35
2017-12-01T07:09:13.972Z,86.39
2017-12-01T07:10:41.150Z,86.59
2017-12-01T07:12:04.236Z,86.61
2017-12-01T07:13:31.439Z,86.52
2017-12-01T07:14:58.718Z,86.54
2017-12-01T07:16:29.739Z,86.72
2017-12-01T07:17:53.086Z,86.77
2017-12-01T07:19:24.396Z,87.10
2017-12-01T07:20:51.694Z,87.35
2017-12-01T07:22:18.804Z,87.41
2017-12-01T07:23:45.953Z,87.26
2017-12-01T07:25:09.158Z,87.38
2017-12-01T07:26:36.478Z,87.58
2017-12-01T07:28:07.642Z,87.64
2017-12-01T07:29:30.720Z,88.03
2017-12-01T07:31:01.901Z,88.19
2017-12-01T07:32:25.291Z,88.26
2017-12-01T07:33:56.494Z,88.38
2017-12-01T07:35:19.156Z,88.41
2017-12-01T07:36:46.428Z,88.15
2017-12-01T07:38:13.703Z,87.98
2017-12-01T07:39:40.834Z,87.96
2017-12-01T07:41:12.161Z,88.00
2017-12-01T07:42:35.249Z,88.04
2017-12-01T07:44:06.459Z,88.05
2017-12-01T07:45:33.498Z,88.74
2017-12-01T07:47:00.460Z,88.84
2017-12-01T07:48:23.699Z,88.93
2017-12-01T07:49:54.927Z,89.42
2017-12-01T07:51:21.928Z,89.89
2017-12-01T07:52:45.105Z,90.51
2017-12-01T07:54:12.338Z,90.75
2017-12-01T07:55:39.609Z,91.04
2017-12-01T07:57:06.590Z,91.05
2017-12-01T07:58:37.985Z,91.22
2017-12-01T08:00:01.180Z,91.09
2017-12-01T08:01:28.229Z,91.11
2017-12-01T08:02:55.352Z,90.76
2017-12-01T08:04:22.644Z,91.00
2017-12-01T08:05:49.948Z,91.12
2017-12-01T08:07:21.167Z,91.20
2017-12-01T08:08:44.163Z,91.14
2017-12-01T08:10:15.303Z,91.21
2017-12-01T08:11:38.524Z,90.97
2017-12-01T08:13:05.777Z,91.14
2017-12-01T08:14:36.831Z,91.15
2017-12-01T08:15:59.936Z,91.09
2017-12-01T08:17:27.201Z,91.31
2017-12-01T08:18:58.459Z,91.50
2017-12-01T08:20:21.684Z,91.37
2017-12-01T08:21:53.057Z,91.54
2017-12-01T08:23:20.144Z,91.49
2017-12-01T08:24:47.463Z,91.59
2017-12-01T08:26:10.577Z,91.79
2017-12-01T08:27:41.788Z,91.63
2017-12-01T08:29:04.933Z,91.73
2017-12-01T08:30:35.968Z,91.88
2017-12-01T08:31:59.163Z,91.59
2017-12-01T08:33:30.216Z,91.80
2017-12-01T08:34:53.430Z,91.64
2017-12-01T08:36:20.588Z,91.68
2017-12-01T08:37:47.886Z,91.37
2017-12-01T08:39:18.939Z,91.29
2017-12-01T08:40:42.039Z,91.46
2017-12-01T08:42:08.775Z,91.12
2017-12-01T08:43:36.066Z,91.00
2017-12-01T08:45:03.210Z,90.67
2017-12-01T08:46:30.403Z,90.72
2017-12-01T08:47:57.540Z,90.62
2017-12-01T08:49:28.718Z,90.82
2017-12-01T08:50:51.963Z,90.43
2017-12-01T08:52:19.128Z,90.52
2017-12-01T08:53:46.383Z,90.37
2017-12-01T08:55:17.685Z,90.35
2017-12-01T08:56:44.924Z,90.21
2017-12-01T08:58:08.322Z,90.01
2017-12-01T08:59:39.454Z,90.43
2017-12-01T09:01:02.673Z,90.30
2017-12-01T09:02:30.068Z,90.47
2017-12-01T09:03:57.230Z,90.22
2017-12-01T09:05:24.285Z,90.06
2017-12-01T09:06:51.505Z,90.33
2017-12-01T09:08:18.942Z,90.18
2017-12-01T09:09:50.151Z,90.04
2017-12-01T09:11:13.479Z,90.22
2017-12-01T09:12:40.871Z,90.03
2017-12-01T09:14:11.901Z,89.77
2017-12-01T09:15:38.966Z,89.25
2017-12-01T09:17:06.374Z,89.17
2017-12-01T09:18:29.459Z,89.15
2017-12-01T09:19:56.635Z,89.12
2017-12-01T09:21:23.910Z,89.13
2017-12-01T09:22:55.214Z,89.03
2017-12-01T09:24:22.564Z,89.11
2017-12-01T09:25:49.883Z,89.34
2017-12-01T09:27:13.023Z,89.33
2017-12-01T09:28:44.227Z,89.24
2017-12-01T09:30:07.582Z,89.29
2017-12-01T09:31:34.722Z,89.29
2017-12-01T09:33:02.047Z,88.96
2017-12-01T09:34:33.394Z,88.73
2017-12-01T09:36:00.345Z,88.33
2017-12-01T09:37:23.541Z,89.02
2017-12-01T09:38:50.795Z,88.80
2017-12-01T09:40:21.954Z,88.48
2017-12-01T09:41:49.276Z,88.26
2017-12-01T09:43:16.528Z,88.18
2017-12-01T09:44:39.892Z,88.31
2017-12-01T09:46:07.110Z,88.79
2017-12-01T09:47:38.238Z,88.47
2017-12-01T09:49:01.548Z,88.83
2017-12-01T09:50:28.777Z,88.84
2017-12-01T09:51:55.749Z,88.81
2017-12-01T09:53:23.136Z,88.72
2017-12-01T09:54:50.397Z,88.78
2017-12-01T09:56:21.429Z,88.64
2017-12-01T09:57:44.582Z,88.36
2017-12-01T09:59:15.782Z,88.36
2017-12-01T10:00:39.116Z,88.53
2017-12-01T10:02:06.426Z,88.21
2017-12-01T10:03:37.446Z,88.52
2017-12-01T10:05:00.897Z,89.06
2017-12-01T10:06:28.130Z,89.16
2017-12-01T10:07:55.368Z,88.98
2017-12-01T10:09:22.503Z,89.09
2017-12-01T10:10:49.730Z,88.76
2017-12-01T10:12:21.043Z,89.27
2017-12-01T10:13:48.145Z,89.73
2017-12-01T10:15:11.387Z,89.35
2017-12-01T10:16:38.645Z,89.52
2017-12-01T10:18:05.840Z,89.74
2017-12-01T10:19:32.995Z,89.80
2017-12-01T10:21:04.341Z,90.47
2017-12-01T10:22:27.510Z,90.40
2017-12-01T10:23:54.536Z,90.40
2017-12-01T10:25:25.656Z,90.18
2017-12-01T10:26:48.910Z,90.25
2017-12-01T10:28:16.292Z,90.06
2017-12-01T10:29:43.525Z,89.95
2017-12-01T10:31:14.758Z,90.06
2017-12-01T10:32:37.979Z,90.09
2017-12-01T10:34:05.372Z,90.24
2017-12-01T10:35:32.438Z,90.44
2017-12-01T10:36:59.582Z,90.27
2017-12-01T10:38:30.707Z,90.05
2017-12-01T10:39:54.052Z,89.81
2017-12-01T10:41:25.352Z,89.64
2017-12-01T10:42:52.602Z,89.31
2017-12-01T10:44:15.982Z,89.30
2017-12-01T10:45:47.248Z,89.01
2017-12-01T10:47:10.709Z,88.99
2017-12-01T10:48:37.828Z,89.25
2017-12-01T10:50:05.205Z,89.19
2017-12-01T10:51:36.323Z,89.18
2017-12-01T10:52:59.414Z,89.31
2017-12-01T10:54:26.473Z,89.35
2017-12-01T10:55:53.830Z,89.11
2017-12-01T10:57:21.007Z,89.21
2017-12-01T10:58:48.406Z,89.07
2017-12-01T11:00:15.644Z,88.94
2017-12-01T11:01:42.982Z,89.13
2017-12-01T11:03:14.258Z,88.98
2017-12-01T11:04:37.568Z,89.44
2017-12-01T11:06:08.718Z,89.66
2017-12-01T11:07:36.060Z,89.93
2017-12-01T11:08:59.398Z,89.92
2017-12-01T11:10:26.377Z,89.79
2017-12-01T11:11:58.666Z,89.62
2017-12-01T11:13:20.917Z,89.67
2017-12-01T11:14:48.217Z,89.49
2017-12-01T11:16:15.477Z,88.99
2017-12-01T11:17:46.691Z,89.33
2017-12-01T11:19:13.872Z,89.08
2017-12-01T11:20:41.164Z,88.94
2017-12-01T11:22:04.498Z,89.18
2017-12-01T11:23:35.775Z,89.63
2017-12-01T11:25:03.128Z,89.53
2017-12-01T11:26:30.040Z,89.19
2017-12-01T11:27:53.449Z,88.92
2017-12-01T11:29:20.698Z,89.09
2017-12-01T11:30:52.021Z,88.92
2017-12-01T11:32:15.424Z,88.24
2017-12-01T11:33:42.778Z,87.79
2017-12-01T11:35:10.020Z,87.78
2017-12-01T11:36:41.308Z,86.81
2017-12-01T11:38:04.483Z,86.72
2017-12-01T11:39:31.686Z,87.55
2017-12-01T11:41:02.874Z,87.85
2017-12-01T11:42:25.915Z,87.77
2017-12-01T11:43:56.997Z,87.94
2017-12-01T11:45:24.261Z,87.98
2017-12-01T11:46:47.656Z,88.01
2017-12-01T11:48:14.923Z,87.71
2017-12-01T11:49:42.133Z,87.46
2017-12-01T11:51:13.403Z,87.30
2017-12-01T11:52:36.672Z,87.43
2017-12-01T11:54:07.950Z,87.48
2017-12-01T11:55:31.178Z,87.33
2017-12-01T11:56:58.483Z,87.28
2017-12-01T11:58:25.779Z,87.14
2017-12-01T11:59:53.008Z,87.26
2017-12-01T12:01:20.508Z,87.53
2017-12-01T12:02:47.825Z,87.39
2017-12-01T12:04:19.112Z,86.90
2017-12-01T12:05:42.376Z,87.78
2017-12-01T12:07:09.589Z,87.99
2017-12-01T12:08:40.743Z,88.13
2017-12-01T12:10:03.961Z,87.24
2017-12-01T12:11:35.272Z,87.29
2017-12-01T12:13:02.466Z,85.73
2017-12-01T12:14:25.751Z,85.58
2017-12-01T12:15:57.034Z,86.25
2017-12-01T12:17:20.158Z,86.46
2017-12-01T12:18:47.552Z,85.89
2017-12-01T12:20:14.720Z,85.10
2017-12-01T12:21:49.754Z,85.74
2017-12-01T12:23:09.128Z,85.30
2017-12-01T12:24:36.328Z,85.42
2017-12-01T12:26:07.629Z,85.50
2017-12-01T12:27:30.932Z,85.19
2017-12-01T12:29:02.059Z,85.34
2017-12-01T12:30:29.278Z,85.31
2017-12-01T12:31:52.493Z,85.06
2017-12-01T12:33:19.806Z,85.11
2017-12-01T12:34:47.028Z,85.83
2017-12-01T12:36:18.053Z,85.61
2017-12-01T12:37:41.337Z,86.03
2017-12-01T12:39:08.522Z,86.03
2017-12-01T12:40:35.658Z,84.19
2017-12-01T12:42:02.957Z,83.66
2017-12-01T12:43:29.927Z,82.83
2017-12-01T12:45:01.102Z,83.08
2017-12-01T12:46:24.372Z,84.25
2017-12-01T12:47:55.649Z,85.14
2017-12-01T12:49:18.928Z,84.40
2017-12-01T12:50:46.052Z,83.88
2017-12-01T12:52:17.232Z,83.77
2017-12-01T12:53:40.427Z,83.23
2017-12-01T12:55:07.793Z,82.58
2017-12-01T12:56:34.992Z,82.42
2017-12-01T12:58:02.014Z,83.31
2017-12-01T12:59:29.217Z,83.57
2017-12-01T13:00:56.304Z,84.39
2017-12-01T13:02:23.471Z,83.91
2017-12-01T13:03:54.650Z,84.04
2017-12-01T13:05:17.845Z,83.95
2017-12-01T13:06:45.156Z,83.96
2017-12-01T13:08:16.188Z,83.41
2017-12-01T13:09:39.438Z,83.48
2017-12-01T13:11:06.818Z,84.36
2017-12-01T13:12:34.037Z,84.02
2017-12-01T13:14:01.244Z,83.57
2017-12-01T13:15:28.382Z,84.05
2017-12-01T13:16:55.719Z,83.99
2017-12-01T13:18:22.784Z,83.82
2017-12-01T13:19:50.065Z,83.28
2017-12-01T13:21:17.146Z,83.93
2017-12-01T13:22:44.315Z,84.12
2017-12-01T13:24:11.531Z,83.72
2017-12-01T13:25:42.775Z,83.38
2017-12-01T13:27:06.060Z,83.48
2017-12-01T13:28:33.330Z,82.83
2017-12-01T13:30:00.575Z,83.90
2017-12-01T13:31:27.788Z,83.50
2017-12-01T13:32:54.988Z,83.61
2017-12-01T13:34:22.194Z,83.16
2017-12-01T13:35:53.454Z,82.69
2017-12-01T13:37:16.788Z,82.75
2017-12-01T13:38:43.940Z,82.90
2017-12-01T13:40:15.366Z,82.85
2017-12-01T13:41:42.422Z,82.79
2017-12-01T13:43:09.827Z,82.37
2017-12-01T13:44:36.860Z,82.23
2017-12-01T13:46:04.170Z,80.72
2017-12-01T13:47:27.370Z,81.52
2017-12-01T13:48:54.674Z,81.23
2017-12-01T13:50:21.974Z,81.26
2017-12-01T13:51:49.344Z,81.87
2017-12-01T13:53:20.671Z,81.97
2017-12-01T13:54:47.913Z,82.24
2017-12-01T13:56:15.243Z,82.26
2017-12-01T13:57:38.626Z,82.12
2017-12-01T13:59:09.826Z,80.69
2017-12-01T14:00:33.220Z,81.24
2017-12-01T14:02:04.431Z,81.73
2017-12-01T14:03:27.537Z,81.73
2017-12-01T14:04:54.722Z,82.30
2017-12-01T14:06:21.824Z,82.44
2017-12-01T14:07:53.066Z,81.97
2017-12-01T14:09:16.327Z,81.91
2017-12-01T14:10:47.402Z,81.71
2017-12-01T14:12:14.654Z,82.55
2017-12-01T14:13:41.743Z,82.66
2017-12-01T14:15:05.060Z,82.83
2017-12-01T14:16:32.368Z,82.87
2017-12-01T14:17:59.514Z,83.11
2017-12-01T14:19:30.351Z,82.26
2017-12-01T14:20:53.478Z,82.28
2017-12-01T14:22:24.300Z,81.64
2017-12-01T14:23:47.461Z,81.97
2017-12-01T14:25:14.736Z,82.00
2017-12-01T14:26:41.973Z,82.09
2017-12-01T14:28:09.159Z,82.24
2017-12-01T14:29:40.279Z,82.81
2017-12-01T14:31:07.353Z,82.54
2017-12-01T14:32:34.433Z,82.25
2017-12-01T14:33:57.473Z,82.43
2017-12-01T14:35:28.630Z,82.35
2017-12-01T14:36:51.850Z,82.53
2017-12-01T14:38:23.122Z,82.69
2017-12-01T14:39:46.212Z,83.07
2017-12-01T14:41:13.516Z,83.11
2017-12-01T14:42:40.681Z,82.85
2017-12-01T14:44:11.866Z,83.40
2017-12-01T14:45:39.115Z,83.57
2017-12-01T14:47:06.429Z,83.48
2017-12-01T14:48:29.549Z,82.52
2017-12-01T14:49:56.609Z,81.91
2017-12-01T14:51:27.851Z,81.74
2017-12-01T14:52:55.147Z,82.07
2017-12-01T14:54:18.355Z,83.00
2017-12-01T14:55:45.616Z,83.52
2017-12-01T14:57:12.620Z,83.58
2017-12-01T14:58:39.930Z,83.45
2017-12-01T15:00:07.005Z,83.13
2017-12-01T15:01:38.111Z,83.34
2017-12-01T15:03:01.367Z,83.23
2017-12-01T15:04:28.682Z,83.12
2017-12-01T15:05:56.059Z,83.33
2017-12-01T15:07:27.115Z,83.08
2017-12-01T15:08:54.252Z,83.40
2017-12-01T15:10:17.489Z,83.19
2017-12-01T15:11:44.826Z,83.37
2017-12-01T15:13:12.028Z,83.32
2017-12-01T15:14:47.262Z,83.26
2017-12-01T15:16:06.503Z,83.24
2017-12-01T15:17:33.655Z,83.22
2017-12-01T15:19:00.981Z,83.19
2017-12-01T15:20:32.223Z,83.64
2017-12-01T15:21:55.579Z,83.64
2017-12-01T15:23:22.758Z,83.73
2017-12-01T15:24:49.994Z,83.57
2017-12-01T15:26:17.174Z,83.35
2017-12-01T15:27:44.390Z,83.56
2017-12-01T15:29:11.523Z,83.22
2017-12-01T15:30:42.599Z,83.47
2017-12-01T15:32:05.804Z,83.73
2017-12-01T15:33:33.012Z,83.72
2017-12-01T15:35:04.219Z,83.40
2017-12-01T15:36:31.494Z,83.52
2017-12-01T15:37:58.783Z,84.14
2017-12-01T15:39:25.980Z,84.14
2017-12-01T15:40:49.376Z,84.26
2017-12-01T15:42:16.593Z,84.39
2017-12-01T15:43:47.689Z,84.28
2017-12-01T15:45:14.636Z,84.63
2017-12-01T15:46:41.917Z,84.58
2017-12-01T15:48:09.158Z,84.58
2017-12-01T15:49:32.512Z,84.74
2017-12-01T15:51:03.642Z,84.50
2017-12-01T15:52:30.791Z,84.62
2017-12-01T15:53:54.022Z,84.24
2017-12-01T15:55:25.268Z,84.24
2017-12-01T15:56:48.433Z,84.33
2017-12-01T15:58:15.732Z,84.03
2017-12-01T15:59:46.861Z,84.44
2017-12-01T16:01:14.087Z,83.99
2017-12-01T16:02:41.319Z,83.70
2017-12-01T16:04:08.560Z,84.03
2017-12-01T16:05:35.764Z,84.36
2017-12-01T16:06:58.948Z,84.47
2017-12-01T16:08:29.881Z,84.42
2017-12-01T16:09:56.895Z,84.81
2017-12-01T16:11:20.241Z,84.50
2017-12-01T16:12:47.541Z,84.66
2017-12-01T16:14:14.487Z,84.87
2017-12-01T16:15:41.828Z,84.64
2017-12-01T16:17:09.062Z,84.96
2017-12-01T16:18:36.128Z,85.50
2017-12-01T16:20:03.278Z,85.25
2017-12-01T16:21:30.454Z,85.77
2017-12-01T16:23:01.434Z,85.10
2017-12-01T16:24:24.694Z,85.63
2017-12-01T16:25:51.899Z,85.55
2017-12-01T16:27:19.137Z,85.81
2017-12-01T16:28:50.169Z,85.81
2017-12-01T16:30:13.187Z,86.00
2017-12-01T16:31:40.524Z,85.97
2017-12-01T16:33:08.496Z,86.34
2017-12-01T16:34:35.024Z,86.51
2017-12-01T16:36:06.419Z,86.50
2017-12-01T16:37:33.287Z,86.42
2017-12-01T16:38:56.340Z,86.63
2017-12-01T16:40:27.502Z,86.75
2017-12-01T16:41:50.683Z,86.16
2017-12-01T16:43:21.541Z,86.47
2017-12-01T16:44:44.694Z,86.02
2017-12-01T16:46:12.071Z,86.13
2017-12-01T16:47:39.382Z,86.26
2017-12-01T16:49:10.699Z,86.59
2017-12-01T16:50:33.910Z,86.79
2017-12-01T16:52:05.215Z,87.02
2017-12-01T16:53:28.446Z,87.49
2017-12-01T16:54:55.532Z,87.60
2017-12-01T16:56:22.852Z,87.70
2017-12-01T16:57:50.245Z,87.86
2017-12-01T16:59:21.408Z,88.06
2017-12-01T17:00:48.772Z,87.83
2017-12-01T17:02:16.119Z,87.86
2017-12-01T17:03:39.370Z,87.92
2017-12-01T17:05:06.487Z,88.03
2017-12-01T17:06:37.719Z,88.16
2017-12-01T17:08:05.000Z,88.29
2017-12-01T17:09:28.232Z,88.06
2017-12-01T17:10:55.528Z,88.10
2017-12-01T17:12:22.612Z,87.88
2017-12-01T17:13:49.962Z,88.42
2017-12-01T17:15:17.211Z,88.09
2017-12-01T17:16:44.283Z,88.34
2017-12-01T17:18:11.360Z,87.41
2017-12-01T17:19:42.626Z,87.50
2017-12-01T17:21:05.771Z,88.62
2017-12-01T17:22:37.138Z,87.89
2017-12-01T17:24:00.214Z,86.66
2017-12-01T17:25:31.326Z,86.91
2017-12-01T17:26:54.586Z,86.56
2017-12-01T17:28:25.807Z,86.22
2017-12-01T17:29:49.254Z,86.77
2017-12-01T17:31:16.276Z,87.20
2017-12-01T17:32:43.659Z,87.04
2017-12-01T17:34:14.836Z,86.79
2017-12-01T17:35:38.109Z,86.38
2017-12-01T17:37:09.412Z,86.83
2017-12-01T17:38:32.679Z,86.19
2017-12-01T17:39:59.889Z,86.21
2017-12-01T17:41:31.035Z,86.71
2017-12-01T17:42:54.348Z,86.20
2017-12-01T17:44:25.798Z,86.28
2017-12-01T17:45:53.060Z,86.79
2017-12-01T17:47:20.291Z,86.51
2017-12-01T17:48:47.719Z,86.67
2017-12-01T17:50:10.797Z,85.94
2017-12-01T17:51:37.919Z,85.78
2017-12-01T17:53:05.142Z,85.80
2017-12-01T17:54:32.429Z,86.17
2017-12-01T17:55:59.517Z,85.29
2017-12-01T17:57:26.725Z,85.58
2017-12-01T17:58:54.179Z,85.02
2017-12-01T18:00:21.327Z,85.42
2017-12-01T18:01:52.583Z,85.23
2017-12-01T18:03:15.606Z,85.42
2017-12-01T18:04:42.719Z,85.21
2017-12-01T18:06:13.979Z,85.17
2017-12-01T18:07:37.237Z,85.45
2017-12-01T18:09:04.368Z,85.06
2017-12-01T18:10:31.508Z,85.06
2017-12-01T18:12:02.722Z,85.55
2017-12-01T18:13:26.014Z,85.38
2017-12-01T18:14:52.915Z,84.93
2017-12-01T18:16:20.289Z,85.11
2017-12-01T18:17:51.702Z,84.77
2017-12-01T18:19:18.976Z,84.69
2017-12-01T18:20:42.380Z,84.87
2017-12-01T18:22:13.630Z,84.39
2017-12-01T18:23:36.818Z,84.83
2017-12-01T18:25:03.991Z,84.53
2017-12-01T18:26:31.198Z,84.14
2017-12-01T18:27:58.459Z,84.59
2017-12-01T18:29:29.781Z,84.20
2017-12-01T18:30:57.146Z,84.44
2017-12-01T18:32:20.332Z,83.92
2017-12-01T18:33:47.903Z,83.96
2017-12-01T18:35:14.977Z,84.22
2017-12-01T18:36:42.296Z,83.83
2017-12-01T18:38:09.612Z,83.71
2017-12-01T18:39:43.910Z,83.73
2017-12-01T18:41:03.923Z,83.28
2017-12-01T18:42:34.951Z,83.35
2017-12-01T18:43:58.276Z,83.96
2017-12-01T18:45:25.362Z,83.72